createdAt,value
2022-10-19T00:00:22.043Z,11.00
2022-10-19T00:02:53.546Z,18.50
2022-10-19T00:05:25.047Z,15.20
2022-10-19T00:07:56.547Z,10.60
2022-10-19T00:10:28.417Z,19.50
2022-10-19T00:13:00.631Z,11.20
2022-10-19T00:15:32.167Z,12.10
2022-10-19T00:18:03.903Z,17.10
2022-10-19T00:20:35.446Z,14.20
2022-10-19T00:25:38.855Z,13.00
2022-10-19T00:28:10.539Z,14.50
2022-10-19T00:30:42.115Z,13.50
2022-10-19T00:33:13.894Z,13.20
2022-10-19T00:35:48.367Z,13.20
2022-10-19T00:38:20.596Z,12.60
2022-10-19T00:40:52.019Z,12.00
2022-10-19T00:43:25.282Z,11.40
2022-10-19T00:45:57.234Z,10.80
2022-10-19T00:48:33.429Z,13.30
2022-10-19T00:51:05.025Z,11.10
2022-10-19T00:53:37.841Z,14.60
2022-10-19T00:56:11.567Z,10.70
2022-10-19T00:58:43.147Z,21.10
2022-10-19T01:01:17.957Z,15.10
2022-10-19T01:03:49.485Z,16.10
2022-10-19T01:06:21.457Z,17.70
2022-10-19T01:08:52.820Z,16.00
2022-10-19T01:11:33.739Z,20.40
2022-10-19T01:14:14.885Z,11.70
2022-10-19T01:16:52.079Z,11.30
2022-10-19T01:19:36.835Z,13.10
2022-10-19T01:22:12.547Z,15.00
2022-10-19T01:24:52.157Z,13.10
2022-10-19T01:27:35.230Z,17.00
2022-10-19T01:30:09.493Z,13.90
2022-10-19T01:32:56.295Z,14.60
2022-10-19T01:35:33.139Z,15.10
2022-10-19T01:38:16.198Z,12.80
2022-10-19T01:40:49.966Z,13.20
2022-10-19T01:43:23.581Z,11.20
2022-10-19T01:45:55.751Z,14.30
2022-10-19T01:48:28.702Z,12.50
2022-10-19T01:51:01.708Z,15.10
2022-10-19T01:53:36.393Z,16.40
2022-10-19T01:56:08.363Z,17.50
2022-10-19T01:58:40.178Z,14.40
2022-10-19T02:03:43.051Z,14.90
2022-10-19T02:06:14.559Z,13.50
2022-10-19T02:08:47.644Z,13.90
2022-10-19T02:11:19.075Z,12.70
2022-10-19T02:13:52.648Z,16.10
2022-10-19T02:16:25.672Z,9.80
2022-10-19T02:18:57.043Z,13.10
2022-10-19T02:21:28.965Z,18.20
2022-10-19T02:24:00.413Z,12.70
2022-10-19T02:26:31.807Z,10.90
2022-10-19T02:29:03.685Z,11.10
2022-10-19T02:31:35.121Z,14.20
2022-10-19T02:34:06.546Z,15.40
2022-10-19T02:36:37.937Z,11.90
2022-10-19T02:39:09.427Z,17.10
2022-10-19T02:41:43.537Z,13.60
2022-10-19T02:44:18.523Z,10.70
2022-10-19T02:46:51.403Z,13.80
2022-10-19T02:49:22.891Z,16.20
2022-10-19T02:52:01.783Z,11.90
2022-10-19T02:54:33.445Z,9.80
2022-10-19T02:57:04.896Z,11.60
2022-10-19T02:59:36.728Z,12.70
2022-10-19T03:02:08.519Z,16.50
2022-10-19T03:04:42.048Z,13.90
2022-10-19T03:07:15.117Z,14.40
2022-10-19T03:09:46.704Z,12.70
2022-10-19T03:14:49.080Z,13.50
2022-10-19T03:17:20.511Z,18.50
2022-10-19T03:19:52.686Z,15.90
2022-10-19T03:22:24.379Z,13.90
2022-10-19T03:24:56.101Z,15.10
2022-10-19T03:27:27.864Z,15.60
2022-10-19T03:29:59.410Z,15.60
2022-10-19T03:32:31.001Z,15.00
2022-10-19T03:35:02.810Z,13.40
2022-10-19T03:37:34.621Z,17.70
2022-10-19T03:40:08.155Z,14.60
2022-10-19T03:42:39.719Z,14.30
2022-10-19T03:45:12.878Z,19.00
2022-10-19T03:47:44.586Z,12.60
2022-10-19T03:50:17.309Z,15.20
2022-10-19T03:52:50.057Z,12.60
2022-10-19T03:55:22.182Z,15.30
2022-10-19T03:57:53.712Z,17.90
2022-10-19T04:00:25.731Z,20.10
2022-10-19T04:02:57.137Z,16.20
2022-10-19T04:07:59.558Z,20.50
2022-10-19T04:13:01.334Z,21.20
2022-10-19T04:18:04.253Z,12.60
2022-10-19T04:20:36.316Z,13.80
2022-10-19T04:23:08.004Z,18.40
2022-10-19T04:25:39.870Z,15.60
2022-10-19T04:28:11.806Z,15.10
2022-10-19T04:30:48.396Z,20.10
2022-10-19T04:33:20.180Z,15.00
2022-10-19T04:35:52.489Z,14.90
2022-10-19T04:39:16.412Z,15.70
2022-10-19T04:42:13.414Z,18.30
2022-10-19T04:44:45.021Z,19.10
2022-10-19T04:49:46.663Z,11.70
2022-10-19T04:52:18.091Z,13.90
2022-10-19T04:54:49.389Z,16.60
2022-10-19T04:57:20.818Z,20.20
2022-10-19T04:59:52.246Z,14.90
2022-10-19T05:02:23.996Z,11.30
2022-10-19T05:04:55.737Z,15.70
2022-10-19T05:07:27.509Z,17.40
2022-10-19T05:09:59.255Z,15.30
2022-10-19T05:12:30.918Z,11.20
2022-10-19T05:15:02.681Z,18.70
2022-10-19T05:17:34.910Z,10.70
2022-10-19T05:20:08.008Z,12.10
2022-10-19T05:22:40.130Z,13.70
2022-10-19T05:25:12.445Z,13.70
2022-10-19T05:27:43.895Z,12.70
2022-10-19T05:30:15.532Z,8.90
2022-10-19T05:32:47.591Z,15.30
2022-10-19T05:35:22.330Z,14.70
2022-10-19T05:37:58.666Z,12.30
2022-10-19T05:40:30.225Z,12.10
2022-10-19T05:43:01.827Z,9.90
2022-10-19T05:45:33.176Z,14.40
2022-10-19T05:48:04.729Z,11.40
2022-10-19T05:50:36.056Z,11.10
2022-10-19T05:55:38.966Z,9.40
2022-10-19T05:58:10.688Z,11.00
2022-10-19T06:00:42.132Z,13.10
2022-10-19T06:05:44.399Z,26.10
2022-10-19T06:08:16.299Z,21.00
2022-10-19T06:10:48.141Z,16.10
2022-10-19T06:13:20.912Z,18.60
2022-10-19T06:15:54.796Z,15.20
2022-10-19T06:18:26.780Z,15.40
2022-10-19T06:23:28.673Z,16.50
2022-10-19T06:26:00.255Z,21.10
2022-10-19T06:31:04.804Z,11.70
2022-10-19T06:33:39.130Z,12.40
2022-10-19T06:36:11.303Z,10.80
2022-10-19T06:38:43.587Z,10.00
2022-10-19T06:41:15.517Z,9.40
2022-10-19T06:43:47.505Z,13.00
2022-10-19T06:46:20.833Z,12.60
2022-10-19T06:49:47.316Z,12.10
2022-10-19T06:52:56.840Z,9.50
2022-10-19T06:55:28.394Z,11.70
2022-10-19T06:58:02.181Z,10.50
2022-10-19T07:00:34.151Z,16.80
2022-10-19T07:05:35.663Z,10.30
2022-10-19T07:08:08.667Z,8.60
2022-10-19T07:10:41.014Z,11.30
2022-10-19T07:13:12.523Z,12.10
2022-10-19T07:15:44.022Z,6.80
2022-10-19T07:18:15.723Z,9.10
2022-10-19T07:23:26.634Z,6.80
2022-10-19T07:28:32.826Z,7.00
2022-10-19T07:31:07.968Z,6.70
2022-10-19T07:33:39.378Z,8.80
2022-10-19T07:36:11.630Z,6.60
2022-10-19T07:38:43.199Z,6.10
2022-10-19T07:41:15.402Z,8.10
2022-10-19T07:43:47.433Z,8.30
2022-10-19T07:46:19.843Z,7.90
2022-10-19T07:48:51.187Z,6.50
2022-10-19T07:51:23.092Z,7.30
2022-10-19T07:53:55.083Z,8.80
2022-10-19T07:56:27.468Z,6.10
2022-10-19T07:58:59.909Z,6.90
2022-10-19T08:01:32.505Z,7.60
2022-10-19T08:06:55.718Z,6.00
2022-10-19T08:09:51.522Z,7.00
2022-10-19T08:12:19.301Z,6.60
2022-10-19T08:17:21.062Z,5.70
2022-10-19T08:19:52.634Z,7.10
2022-10-19T08:22:24.134Z,5.60
2022-10-19T08:24:55.595Z,4.70
2022-10-19T08:27:27.104Z,4.10
2022-10-19T08:29:58.570Z,4.90
2022-10-19T08:32:29.925Z,4.50
2022-10-19T08:35:01.527Z,3.60
2022-10-19T08:37:44.096Z,3.60
2022-10-19T08:40:20.566Z,5.90
2022-10-19T08:42:58.444Z,3.20
2022-10-19T08:45:46.811Z,6.80
2022-10-19T08:48:29.260Z,7.00
2022-10-19T08:51:01.116Z,4.90
2022-10-19T08:53:39.322Z,3.50
2022-10-19T08:56:38.884Z,4.40
2022-10-19T08:59:18.645Z,2.90
2022-10-19T09:01:52.385Z,7.90
2022-10-19T09:04:25.516Z,41.70
2022-10-19T09:07:14.493Z,8.10
2022-10-19T09:09:48.008Z,3.40
2022-10-19T09:12:20.758Z,2.70
2022-10-19T09:14:55.448Z,3.50
2022-10-19T09:17:34.957Z,3.50
2022-10-19T09:20:20.088Z,3.00
2022-10-19T09:22:56.688Z,3.30
2022-10-19T09:25:29.383Z,3.80
2022-10-19T09:28:07.798Z,2.80
2022-10-19T09:30:39.475Z,3.10
2022-10-19T09:33:15.406Z,3.10
2022-10-19T09:35:47.809Z,2.80
2022-10-19T09:38:20.062Z,4.50
2022-10-19T09:40:51.681Z,3.80
2022-10-19T09:43:23.198Z,3.90
2022-10-19T09:45:55.449Z,4.30
2022-10-19T09:48:30.454Z,3.00
2022-10-19T09:51:03.411Z,2.20
2022-10-19T09:53:34.817Z,2.50
2022-10-19T09:56:08.840Z,3.60
2022-10-19T09:58:40.333Z,1.80
2022-10-19T10:01:12.932Z,2.10
2022-10-19T10:03:44.771Z,3.60
2022-10-19T10:06:17.796Z,1.70
2022-10-19T10:08:51.012Z,3.80
2022-10-19T10:11:28.408Z,4.00
2022-10-19T10:14:01.004Z,4.00
2022-10-19T10:16:36.378Z,3.60
2022-10-19T10:19:09.336Z,5.90
2022-10-19T10:21:50.113Z,5.60
2022-10-19T10:24:22.626Z,5.80
2022-10-19T10:26:55.603Z,3.20
2022-10-19T10:29:28.473Z,4.30
2022-10-19T10:32:02.252Z,6.20
2022-10-19T10:34:49.799Z,6.30
2022-10-19T10:37:23.553Z,1.70
2022-10-19T10:39:57.919Z,3.00
2022-10-19T10:42:35.212Z,5.10
2022-10-19T10:45:11.449Z,6.10
2022-10-19T10:47:43.895Z,2.50
2022-10-19T10:50:21.079Z,3.00
2022-10-19T10:53:03.076Z,2.00
2022-10-19T10:55:34.835Z,3.60
2022-10-19T10:58:16.843Z,5.40
2022-10-19T11:03:21.005Z,4.90
2022-10-19T11:05:53.654Z,5.40
2022-10-19T11:08:26.412Z,3.40
2022-10-19T11:11:00.657Z,5.20
2022-10-19T11:13:34.769Z,4.60
2022-10-19T11:16:08.389Z,4.80
2022-10-19T11:18:42.591Z,5.60
2022-10-19T11:21:16.291Z,6.10
2022-10-19T11:24:01.650Z,10.60
2022-10-19T11:26:58.281Z,12.60
2022-10-19T11:29:39.844Z,7.90
2022-10-19T11:32:16.014Z,9.50
2022-10-19T11:34:54.611Z,12.30
2022-10-19T11:37:29.656Z,10.60
2022-10-19T11:40:07.111Z,7.90
2022-10-19T11:45:28.932Z,4.70
2022-10-19T11:48:15.256Z,9.40
2022-10-19T11:50:54.194Z,6.70
2022-10-19T11:53:35.520Z,11.00
2022-10-19T11:56:10.642Z,2.80
2022-10-19T11:58:49.716Z,5.70
2022-10-19T12:01:27.811Z,5.60
2022-10-19T12:04:05.285Z,5.70
2022-10-19T12:06:41.141Z,4.70
2022-10-19T12:09:22.910Z,7.40
2022-10-19T12:12:03.677Z,4.30
2022-10-19T12:14:35.778Z,2.70
2022-10-19T12:17:09.818Z,4.00
2022-10-19T12:19:44.074Z,12.60
2022-10-19T12:22:18.954Z,3.10
2022-10-19T12:24:51.162Z,5.50
2022-10-19T12:27:25.111Z,4.80
2022-10-19T12:30:06.424Z,6.50
2022-10-19T12:32:44.686Z,7.60
2022-10-19T12:35:26.189Z,8.10
2022-10-19T12:37:59.198Z,8.70
2022-10-19T12:40:34.024Z,7.50
2022-10-19T12:43:09.186Z,5.10
2022-10-19T12:45:41.908Z,7.10
2022-10-19T12:48:21.612Z,3.80
2022-10-19T12:51:19.832Z,6.70
2022-10-19T12:53:51.635Z,9.30
2022-10-19T12:56:26.637Z,10.20
2022-10-19T12:59:01.716Z,5.90
2022-10-19T13:01:44.813Z,6.80
2022-10-19T13:04:17.578Z,12.60
2022-10-19T13:06:49.804Z,6.60
2022-10-19T13:09:28.184Z,10.40
2022-10-19T13:12:30.354Z,8.30
2022-10-19T13:15:02.228Z,7.80
2022-10-19T13:17:46.542Z,15.70
2022-10-19T13:20:51.456Z,9.70
2022-10-19T13:23:43.146Z,7.40
2022-10-19T13:26:35.975Z,4.30
2022-10-19T13:29:27.387Z,7.70
2022-10-19T13:31:58.906Z,11.30
2022-10-19T13:34:30.590Z,10.50
2022-10-19T13:39:36.262Z,8.60
2022-10-19T13:42:13.728Z,7.30
2022-10-19T13:44:47.467Z,9.50
2022-10-19T13:50:37.948Z,12.60
2022-10-19T13:53:27.157Z,8.50
2022-10-19T13:56:19.006Z,12.10
2022-10-19T14:02:20.734Z,12.50
2022-10-19T14:04:57.540Z,8.50
2022-10-19T14:07:31.420Z,15.00
2022-10-19T14:10:14.532Z,8.40
2022-10-19T14:12:46.393Z,10.80
2022-10-19T14:15:25.588Z,7.80
2022-10-19T14:18:00.261Z,16.20
2022-10-19T14:20:41.249Z,6.20
2022-10-19T14:23:22.747Z,11.00
2022-10-19T14:25:56.529Z,10.20
2022-10-19T14:28:28.187Z,13.80
2022-10-19T14:33:31.758Z,14.20
2022-10-19T14:36:03.712Z,17.30
2022-10-19T14:38:37.343Z,30.70
2022-10-19T14:41:18.907Z,22.90
2022-10-19T14:43:50.562Z,20.70
2022-10-19T14:46:22.111Z,20.60
2022-10-19T14:48:53.827Z,24.60
2022-10-19T14:51:31.796Z,12.00
2022-10-19T14:54:05.594Z,20.50
2022-10-19T14:56:40.857Z,20.10
2022-10-19T14:59:20.142Z,33.00
2022-10-19T15:01:54.076Z,24.20
2022-10-19T15:04:26.711Z,24.20
2022-10-19T15:06:58.179Z,23.50
2022-10-19T15:09:37.250Z,31.10
2022-10-19T15:12:10.257Z,29.50
2022-10-19T15:14:41.684Z,13.50
2022-10-19T15:17:26.507Z,19.20
2022-10-19T15:20:00.480Z,17.90
2022-10-19T15:22:42.098Z,17.90
2022-10-19T15:25:37.527Z,14.70
2022-10-19T15:28:39.029Z,23.10
2022-10-19T15:31:19.251Z,31.20
2022-10-19T15:33:52.539Z,29.30
2022-10-19T15:36:25.152Z,35.10
2022-10-19T15:39:17.875Z,30.50
2022-10-19T15:41:56.359Z,34.00
2022-10-19T15:44:46.876Z,37.90
2022-10-19T15:47:23.696Z,25.20
2022-10-19T15:49:57.213Z,16.80
2022-10-19T15:52:29.333Z,18.30
2022-10-19T15:55:01.377Z,24.70
2022-10-19T15:57:34.739Z,17.50
2022-10-19T16:00:12.593Z,24.80
2022-10-19T16:02:44.613Z,27.60
2022-10-19T16:05:16.715Z,38.50
2022-10-19T16:07:48.218Z,43.90
2022-10-19T16:10:21.832Z,39.90
2022-10-19T16:12:53.234Z,48.40
2022-10-19T16:15:25.348Z,45.30
2022-10-19T16:17:58.946Z,53.80
2022-10-19T16:20:31.532Z,57.50
2022-10-19T16:23:02.964Z,54.20
2022-10-19T16:25:34.596Z,57.40
2022-10-19T16:28:06.285Z,54.20
2022-10-19T16:33:07.453Z,53.40
2022-10-19T16:35:40.017Z,42.50
2022-10-19T16:38:11.443Z,42.90
2022-10-19T16:40:42.956Z,31.20
2022-10-19T16:43:14.461Z,37.40
2022-10-19T16:45:46.721Z,34.90
2022-10-19T16:48:23.062Z,32.00
2022-10-19T16:51:21.516Z,36.20
2022-10-19T16:53:54.673Z,37.10
2022-10-19T16:56:27.290Z,32.50
2022-10-19T16:59:00.066Z,32.80
2022-10-19T17:01:31.775Z,38.60
2022-10-19T17:06:33.776Z,34.50
2022-10-19T17:11:57.075Z,37.50
2022-10-19T17:14:28.563Z,36.60
2022-10-19T17:16:59.957Z,39.00
2022-10-19T17:19:31.407Z,34.30
2022-10-19T17:22:03.989Z,30.00
2022-10-19T17:24:37.525Z,28.70
2022-10-19T17:27:09.040Z,34.20
2022-10-19T17:29:40.494Z,29.10
2022-10-19T17:32:11.974Z,32.50
2022-10-19T17:34:43.607Z,30.90
2022-10-19T17:37:15.279Z,33.60
2022-10-19T17:39:46.834Z,30.30
2022-10-19T17:42:18.414Z,29.20
2022-10-19T17:44:49.811Z,28.00
2022-10-19T17:47:21.227Z,35.90
2022-10-19T17:49:52.681Z,29.30
2022-10-19T17:52:24.496Z,32.20
2022-10-19T17:57:44.545Z,38.10
2022-10-19T18:00:17.508Z,42.10
2022-10-19T18:02:49.930Z,33.60
2022-10-19T18:05:21.555Z,36.20
2022-10-19T18:07:54.086Z,30.50
2022-10-19T18:10:25.687Z,31.30
2022-10-19T18:12:57.110Z,29.60
2022-10-19T18:15:28.596Z,23.00
2022-10-19T18:18:01.163Z,21.80
2022-10-19T18:20:33.009Z,19.60
2022-10-19T18:25:52.948Z,21.90
2022-10-19T18:28:25.866Z,17.90
2022-10-19T18:33:30.285Z,11.00
2022-10-19T18:36:03.953Z,11.80
2022-10-19T18:38:35.799Z,11.40
2022-10-19T18:41:08.048Z,10.70
2022-10-19T18:43:39.512Z,9.90
2022-10-19T18:46:11.122Z,10.90
2022-10-19T18:48:42.933Z,9.60
2022-10-19T18:53:44.934Z,8.50
2022-10-19T18:56:17.341Z,9.50
2022-10-19T18:58:48.961Z,8.90
2022-10-19T19:03:53.766Z,9.10
2022-10-19T19:06:26.508Z,10.90
2022-10-19T19:08:58.656Z,9.80
2022-10-19T19:11:34.275Z,9.50
2022-10-19T19:14:09.955Z,9.60
2022-10-19T19:16:41.937Z,9.30
2022-10-19T19:19:13.977Z,10.50
2022-10-19T19:21:45.777Z,12.50
2022-10-19T19:26:49.670Z,10.80
2022-10-19T19:29:21.280Z,10.40
2022-10-19T19:31:53.703Z,10.10
2022-10-19T19:34:25.167Z,11.80
2022-10-19T19:36:56.697Z,9.60
2022-10-19T19:39:28.455Z,12.80
2022-10-19T19:44:30.054Z,10.20
2022-10-19T19:47:02.127Z,9.40
2022-10-19T19:49:33.639Z,10.70
2022-10-19T19:52:05.025Z,16.10
2022-10-19T19:54:36.729Z,10.20
2022-10-19T19:59:39.676Z,10.40
2022-10-19T20:02:12.041Z,10.50
2022-10-19T20:04:43.664Z,10.70
2022-10-19T20:07:15.216Z,11.30
2022-10-19T20:09:46.525Z,12.70
2022-10-19T20:12:17.976Z,12.30
2022-10-19T20:14:49.473Z,9.70
2022-10-19T20:17:23.970Z,10.90
2022-10-19T20:19:55.440Z,9.80
2022-10-19T20:22:26.985Z,10.50
2022-10-19T20:24:58.480Z,12.30
2022-10-19T20:27:29.972Z,11.10
2022-10-19T20:30:01.424Z,11.20
2022-10-19T20:32:33.480Z,9.40
2022-10-19T20:35:05.584Z,11.10
2022-10-19T20:37:37.052Z,10.20
2022-10-19T20:40:11.081Z,11.10
2022-10-19T20:42:42.621Z,12.90
2022-10-19T20:45:14.408Z,11.30
2022-10-19T20:50:18.117Z,11.50
2022-10-19T20:52:52.325Z,12.30
2022-10-19T20:55:23.772Z,12.60
2022-10-19T20:57:55.211Z,11.80
2022-10-19T21:00:26.953Z,10.90
2022-10-19T21:05:28.245Z,12.90
2022-10-19T21:07:59.925Z,10.30
2022-10-19T21:10:31.789Z,14.00
2022-10-19T21:13:03.205Z,13.00
2022-10-19T21:15:34.610Z,10.40
2022-10-19T21:18:06.184Z,13.00
2022-10-19T21:20:37.670Z,10.60
2022-10-19T21:23:09.310Z,14.10
2022-10-19T21:25:40.805Z,11.00
2022-10-19T21:28:12.322Z,11.50
2022-10-19T21:30:43.661Z,10.80
2022-10-19T21:33:15.349Z,14.30
2022-10-19T21:38:16.981Z,13.60
2022-10-19T21:40:48.480Z,15.90
2022-10-19T21:43:20.312Z,15.90
2022-10-19T21:48:21.481Z,17.40
2022-10-19T21:50:53.145Z,18.80
2022-10-19T21:55:55.406Z,20.90
2022-10-19T21:58:26.791Z,17.00
2022-10-19T22:01:04.725Z,24.70
2022-10-19T22:03:36.556Z,24.20
2022-10-19T22:06:08.164Z,26.80
2022-10-19T22:08:39.589Z,26.10
2022-10-19T22:11:12.097Z,36.60
2022-10-19T22:13:43.443Z,39.00
2022-10-19T22:16:15.702Z,42.70
2022-10-19T22:18:47.175Z,52.20
2022-10-19T22:21:20.615Z,55.10
2022-10-19T22:23:54.866Z,53.20
2022-10-19T22:26:27.180Z,38.70
2022-10-19T22:28:59.358Z,33.90
2022-10-19T22:31:31.297Z,26.90
2022-10-19T22:34:03.463Z,36.10
2022-10-19T22:36:34.979Z,38.70
2022-10-19T22:39:06.599Z,37.60
2022-10-19T22:41:38.196Z,29.40
2022-10-19T22:44:09.649Z,29.70
2022-10-19T22:46:41.247Z,27.60
2022-10-19T22:49:12.820Z,23.70
2022-10-19T22:51:44.397Z,26.30
2022-10-19T22:56:45.926Z,27.70
2022-10-19T22:59:17.634Z,29.80
2022-10-19T23:01:49.160Z,29.90
2022-10-19T23:04:21.458Z,28.10
2022-10-19T23:06:52.971Z,25.30
2022-10-19T23:09:24.867Z,21.20
2022-10-19T23:14:26.705Z,22.50
2022-10-19T23:19:27.898Z,20.00
2022-10-19T23:21:59.323Z,19.90
2022-10-19T23:24:30.716Z,20.80
2022-10-19T23:27:02.421Z,18.40
2022-10-19T23:32:03.844Z,19.30
2022-10-19T23:37:10.204Z,17.10
2022-10-19T23:42:11.756Z,17.00
2022-10-19T23:44:43.253Z,21.50
2022-10-19T23:47:14.903Z,26.50
2022-10-19T23:52:16.338Z,27.80
2022-10-19T23:54:47.838Z,28.50
2022-10-19T23:57:19.414Z,26.40
2022-10-19T23:59:50.799Z,26.60
